sensor_id;sensor_type;location;lat;lon;timestamp;P1;durP1;ratioP1;P2;durP2;ratioP2
8572;SDS011;4324;42.012;24.872;2024-01-11T00:01:22;11.47;;;8.30;;
8572;SDS011;4324;42.012;24.872;2024-01-11T00:03:49;12.13;;;7.60;;
8572;SDS011;4324;42.012;24.872;2024-01-11T00:06:18;13.13;;;8.37;;
8572;SDS011;4324;42.012;24.872;2024-01-11T00:08:45;11.43;;;7.57;;
8572;SDS011;4324;42.012;24.872;2024-01-11T00:11:12;13.70;;;8.63;;
8572;SDS011;4324;42.012;24.872;2024-01-11T00:13:39;13.97;;;8.17;;
8572;SDS011;4324;42.012;24.872;2024-01-11T00:16:06;12.37;;;8.47;;
8572;SDS011;4324;42.012;24.872;2024-01-11T00:18:33;11.13;;;8.10;;
8572;SDS011;4324;42.012;24.872;2024-01-11T00:20:59;10.50;;;7.87;;
8572;SDS011;4324;42.012;24.872;2024-01-11T00:23:28;16.57;;;10.13;;
8572;SDS011;4324;42.012;24.872;2024-01-11T00:25:55;13.00;;;9.70;;
8572;SDS011;4324;42.012;24.872;2024-01-11T00:28:22;14.37;;;9.60;;
8572;SDS011;4324;42.012;24.872;2024-01-11T00:30:49;13.70;;;9.30;;
8572;SDS011;4324;42.012;24.872;2024-01-11T00:33:16;13.57;;;8.93;;
8572;SDS011;4324;42.012;24.872;2024-01-11T00:35:43;14.03;;;8.97;;
8572;SDS011;4324;42.012;24.872;2024-01-11T00:38:10;12.53;;;8.27;;
8572;SDS011;4324;42.012;24.872;2024-01-11T00:40:38;11.80;;;8.40;;
8572;SDS011;4324;42.012;24.872;2024-01-11T00:43:05;12.30;;;8.60;;
8572;SDS011;4324;42.012;24.872;2024-01-11T00:45:32;12.50;;;8.77;;
8572;SDS011;4324;42.012;24.872;2024-01-11T00:48:00;13.23;;;9.57;;
8572;SDS011;4324;42.012;24.872;2024-01-11T00:50:27;12.77;;;8.90;;
8572;SDS011;4324;42.012;24.872;2024-01-11T00:52:55;13.13;;;8.20;;
8572;SDS011;4324;42.012;24.872;2024-01-11T00:55:22;12.87;;;8.40;;
8572;SDS011;4324;42.012;24.872;2024-01-11T00:57:51;14.70;;;8.93;;
8572;SDS011;4324;42.012;24.872;2024-01-11T01:00:18;14.87;;;10.17;;
8572;SDS011;4324;42.012;24.872;2024-01-11T01:02:45;19.60;;;10.57;;
8572;SDS011;4324;42.012;24.872;2024-01-11T01:05:12;17.37;;;11.10;;
8572;SDS011;4324;42.012;24.872;2024-01-11T01:07:40;15.47;;;10.70;;
8572;SDS011;4324;42.012;24.872;2024-01-11T01:10:07;17.37;;;11.40;;
8572;SDS011;4324;42.012;24.872;2024-01-11T01:12:34;15.27;;;10.27;;
8572;SDS011;4324;42.012;24.872;2024-01-11T01:15:03;19.20;;;11.13;;
8572;SDS011;4324;42.012;24.872;2024-01-11T01:17:31;17.47;;;11.63;;
8572;SDS011;4324;42.012;24.872;2024-01-11T01:19:58;14.80;;;11.27;;
8572;SDS011;4324;42.012;24.872;2024-01-11T01:22:25;16.97;;;11.03;;
8572;SDS011;4324;42.012;24.872;2024-01-11T01:24:52;15.20;;;10.33;;
8572;SDS011;4324;42.012;24.872;2024-01-11T01:27:19;14.53;;;9.10;;
8572;SDS011;4324;42.012;24.872;2024-01-11T01:29:46;12.77;;;8.83;;
8572;SDS011;4324;42.012;24.872;2024-01-11T01:32:14;11.63;;;9.47;;
8572;SDS011;4324;42.012;24.872;2024-01-11T01:34:42;15.30;;;9.47;;
8572;SDS011;4324;42.012;24.872;2024-01-11T01:37:09;13.97;;;9.13;;
8572;SDS011;4324;42.012;24.872;2024-01-11T01:39:37;11.83;;;8.00;;
8572;SDS011;4324;42.012;24.872;2024-01-11T01:42:04;12.00;;;8.10;;
8572;SDS011;4324;42.012;24.872;2024-01-11T01:44:31;11.23;;;7.60;;
8572;SDS011;4324;42.012;24.872;2024-01-11T01:46:59;12.77;;;8.03;;
8572;SDS011;4324;42.012;24.872;2024-01-11T01:49:28;11.23;;;7.80;;
8572;SDS011;4324;42.012;24.872;2024-01-11T01:51:55;10.93;;;7.50;;
8572;SDS011;4324;42.012;24.872;2024-01-11T01:54:22;10.33;;;6.30;;
8572;SDS011;4324;42.012;24.872;2024-01-11T01:56:50;6.30;;;5.17;;
8572;SDS011;4324;42.012;24.872;2024-01-11T01:59:18;8.00;;;5.47;;
8572;SDS011;4324;42.012;24.872;2024-01-11T02:01:47;8.00;;;5.50;;
8572;SDS011;4324;42.012;24.872;2024-01-11T02:04:15;7.60;;;5.67;;
8572;SDS011;4324;42.012;24.872;2024-01-11T02:06:43;7.87;;;4.70;;
8572;SDS011;4324;42.012;24.872;2024-01-11T02:09:13;7.77;;;5.33;;
8572;SDS011;4324;42.012;24.872;2024-01-11T02:11:41;5.13;;;3.80;;
8572;SDS011;4324;42.012;24.872;2024-01-11T02:14:08;4.63;;;3.53;;
8572;SDS011;4324;42.012;24.872;2024-01-11T02:16:36;3.10;;;2.43;;
8572;SDS011;4324;42.012;24.872;2024-01-11T02:19:04;3.07;;;2.73;;
8572;SDS011;4324;42.012;24.872;2024-01-11T02:21:33;2.17;;;1.97;;
8572;SDS011;4324;42.012;24.872;2024-01-11T02:24:06;2.87;;;2.40;;
8572;SDS011;4324;42.012;24.872;2024-01-11T02:26:34;4.17;;;2.70;;
8572;SDS011;4324;42.012;24.872;2024-01-11T02:29:01;5.17;;;3.60;;
8572;SDS011;4324;42.012;24.872;2024-01-11T02:31:28;5.27;;;3.60;;
8572;SDS011;4324;42.012;24.872;2024-01-11T02:33:55;4.87;;;3.10;;
8572;SDS011;4324;42.012;24.872;2024-01-11T02:36:22;2.90;;;2.23;;
8572;SDS011;4324;42.012;24.872;2024-01-11T02:38:51;5.23;;;2.93;;
8572;SDS011;4324;42.012;24.872;2024-01-11T02:41:21;5.53;;;3.80;;
8572;SDS011;4324;42.012;24.872;2024-01-11T02:43:49;5.40;;;3.73;;
8572;SDS011;4324;42.012;24.872;2024-01-11T02:46:18;5.83;;;4.10;;
8572;SDS011;4324;42.012;24.872;2024-01-11T02:48:45;7.10;;;4.90;;
8572;SDS011;4324;42.012;24.872;2024-01-11T02:51:12;7.13;;;5.60;;
8572;SDS011;4324;42.012;24.872;2024-01-11T02:53:39;9.03;;;5.90;;
8572;SDS011;4324;42.012;24.872;2024-01-11T02:56:06;7.17;;;5.07;;
8572;SDS011;4324;42.012;24.872;2024-01-11T02:58:34;9.37;;;6.33;;
8572;SDS011;4324;42.012;24.872;2024-01-11T03:01:01;10.03;;;7.53;;
8572;SDS011;4324;42.012;24.872;2024-01-11T03:03:28;7.30;;;5.90;;
8572;SDS011;4324;42.012;24.872;2024-01-11T03:05:55;13.37;;;9.13;;
8572;SDS011;4324;42.012;24.872;2024-01-11T03:08:22;11.00;;;7.97;;
8572;SDS011;4324;42.012;24.872;2024-01-11T03:10:49;13.07;;;7.97;;
8572;SDS011;4324;42.012;24.872;2024-01-11T03:13:16;14.17;;;9.53;;
8572;SDS011;4324;42.012;24.872;2024-01-11T03:15:45;10.30;;;8.30;;
8572;SDS011;4324;42.012;24.872;2024-01-11T03:18:12;14.30;;;9.57;;
8572;SDS011;4324;42.012;24.872;2024-01-11T03:20:39;14.77;;;9.63;;
8572;SDS011;4324;42.012;24.872;2024-01-11T03:23:06;13.77;;;9.37;;
8572;SDS011;4324;42.012;24.872;2024-01-11T03:25:33;12.50;;;9.67;;
8572;SDS011;4324;42.012;24.872;2024-01-11T03:28:00;15.27;;;10.30;;
8572;SDS011;4324;42.012;24.872;2024-01-11T03:30:27;17.10;;;11.67;;
8572;SDS011;4324;42.012;24.872;2024-01-11T03:32:56;16.73;;;11.63;;
8572;SDS011;4324;42.012;24.872;2024-01-11T03:35:23;17.43;;;12.37;;
8572;SDS011;4324;42.012;24.872;2024-01-11T03:37:50;16.73;;;11.53;;
8572;SDS011;4324;42.012;24.872;2024-01-11T03:40:17;18.87;;;13.13;;
8572;SDS011;4324;42.012;24.872;2024-01-11T03:42:44;14.87;;;9.83;;
8572;SDS011;4324;42.012;24.872;2024-01-11T03:45:11;13.83;;;10.30;;
8572;SDS011;4324;42.012;24.872;2024-01-11T03:47:38;17.60;;;10.80;;
8572;SDS011;4324;42.012;24.872;2024-01-11T03:50:07;14.90;;;10.80;;
8572;SDS011;4324;42.012;24.872;2024-01-11T03:52:34;12.80;;;10.00;;
8572;SDS011;4324;42.012;24.872;2024-01-11T03:55:01;15.47;;;10.60;;
8572;SDS011;4324;42.012;24.872;2024-01-11T03:57:28;15.73;;;11.50;;
8572;SDS011;4324;42.012;24.872;2024-01-11T03:59:55;16.83;;;11.43;;
8572;SDS011;4324;42.012;24.872;2024-01-11T04:02:24;17.03;;;11.03;;
8572;SDS011;4324;42.012;24.872;2024-01-11T04:04:51;12.53;;;9.53;;
8572;SDS011;4324;42.012;24.872;2024-01-11T04:07:20;19.93;;;12.87;;
8572;SDS011;4324;42.012;24.872;2024-01-11T04:09:47;21.00;;;12.77;;
8572;SDS011;4324;42.012;24.872;2024-01-11T04:12:14;14.93;;;10.07;;
8572;SDS011;4324;42.012;24.872;2024-01-11T04:14:41;22.37;;;14.77;;
8572;SDS011;4324;42.012;24.872;2024-01-11T04:17:08;18.97;;;12.93;;
8572;SDS011;4324;42.012;24.872;2024-01-11T04:19:35;21.33;;;15.17;;
8572;SDS011;4324;42.012;24.872;2024-01-11T04:22:02;26.63;;;16.07;;
8572;SDS011;4324;42.012;24.872;2024-01-11T04:24:31;23.07;;;15.87;;
8572;SDS011;4324;42.012;24.872;2024-01-11T04:26:58;19.70;;;13.93;;
8572;SDS011;4324;42.012;24.872;2024-01-11T04:29:25;14.50;;;9.40;;
8572;SDS011;4324;42.012;24.872;2024-01-11T04:31:51;11.83;;;8.43;;
8572;SDS011;4324;42.012;24.872;2024-01-11T04:34:18;11.07;;;7.50;;
8572;SDS011;4324;42.012;24.872;2024-01-11T04:36:45;12.03;;;8.20;;
8572;SDS011;4324;42.012;24.872;2024-01-11T04:39:12;15.87;;;10.43;;
8572;SDS011;4324;42.012;24.872;2024-01-11T04:41:41;27.00;;;19.90;;
8572;SDS011;4324;42.012;24.872;2024-01-11T04:44:08;22.47;;;15.93;;
8572;SDS011;4324;42.012;24.872;2024-01-11T04:46:35;21.33;;;15.20;;
8572;SDS011;4324;42.012;24.872;2024-01-11T04:49:02;26.83;;;15.90;;
8572;SDS011;4324;42.012;24.872;2024-01-11T04:51:29;32.63;;;20.27;;
8572;SDS011;4324;42.012;24.872;2024-01-11T04:53:56;25.07;;;17.60;;
8572;SDS011;4324;42.012;24.872;2024-01-11T04:56:23;23.40;;;14.93;;
8572;SDS011;4324;42.012;24.872;2024-01-11T04:58:51;24.40;;;16.27;;
8572;SDS011;4324;42.012;24.872;2024-01-11T05:01:18;24.80;;;17.33;;
8572;SDS011;4324;42.012;24.872;2024-01-11T05:03:45;25.20;;;15.87;;
8572;SDS011;4324;42.012;24.872;2024-01-11T05:06:16;49.40;;;26.57;;
8572;SDS011;4324;42.012;24.872;2024-01-11T05:08:43;34.13;;;19.73;;
8572;SDS011;4324;42.012;24.872;2024-01-11T05:11:15;21.53;;;13.57;;
8572;SDS011;4324;42.012;24.872;2024-01-11T05:13:43;24.33;;;15.13;;
8572;SDS011;4324;42.012;24.872;2024-01-11T05:16:18;18.47;;;12.47;;
8572;SDS011;4324;42.012;24.872;2024-01-11T05:18:46;20.27;;;12.57;;
8572;SDS011;4324;42.012;24.872;2024-01-11T05:21:13;16.57;;;11.63;;
8572;SDS011;4324;42.012;24.872;2024-01-11T05:23:40;16.00;;;12.10;;
8572;SDS011;4324;42.012;24.872;2024-01-11T05:26:08;16.27;;;12.93;;
8572;SDS011;4324;42.012;24.872;2024-01-11T05:28:35;21.23;;;13.10;;
8572;SDS011;4324;42.012;24.872;2024-01-11T05:31:04;18.67;;;12.57;;
8572;SDS011;4324;42.012;24.872;2024-01-11T05:33:33;20.40;;;12.83;;
8572;SDS011;4324;42.012;24.872;2024-01-11T05:36:00;17.87;;;12.50;;
8572;SDS011;4324;42.012;24.872;2024-01-11T05:38:27;20.10;;;13.90;;
8572;SDS011;4324;42.012;24.872;2024-01-11T05:40:54;24.47;;;14.40;;
8572;SDS011;4324;42.012;24.872;2024-01-11T05:43:22;27.33;;;19.13;;
8572;SDS011;4324;42.012;24.872;2024-01-11T05:45:49;28.93;;;21.77;;
8572;SDS011;4324;42.012;24.872;2024-01-11T05:48:17;24.73;;;17.93;;
8572;SDS011;4324;42.012;24.872;2024-01-11T05:50:45;22.10;;;15.30;;
8572;SDS011;4324;42.012;24.872;2024-01-11T05:53:12;24.30;;;16.93;;
8572;SDS011;4324;42.012;24.872;2024-01-11T05:55:40;23.63;;;16.07;;
8572;SDS011;4324;42.012;24.872;2024-01-11T05:58:07;19.90;;;14.00;;
8572;SDS011;4324;42.012;24.872;2024-01-11T06:00:35;31.60;;;21.70;;
8572;SDS011;4324;42.012;24.872;2024-01-11T06:03:02;21.60;;;16.17;;
8572;SDS011;4324;42.012;24.872;2024-01-11T06:05:30;22.10;;;14.73;;
8572;SDS011;4324;42.012;24.872;2024-01-11T06:07:58;51.77;;;28.83;;
8572;SDS011;4324;42.012;24.872;2024-01-11T06:10:25;49.77;;;29.20;;
8572;SDS011;4324;42.012;24.872;2024-01-11T06:12:52;38.10;;;22.93;;
8572;SDS011;4324;42.012;24.872;2024-01-11T06:15:21;29.83;;;21.27;;
8572;SDS011;4324;42.012;24.872;2024-01-11T06:17:48;31.93;;;20.20;;
8572;SDS011;4324;42.012;24.872;2024-01-11T06:20:16;33.47;;;21.77;;
8572;SDS011;4324;42.012;24.872;2024-01-11T06:22:43;59.40;;;36.83;;
8572;SDS011;4324;42.012;24.872;2024-01-11T06:25:11;93.20;;;51.83;;
8572;SDS011;4324;42.012;24.872;2024-01-11T06:27:38;72.17;;;44.80;;
8572;SDS011;4324;42.012;24.872;2024-01-11T06:30:05;32.87;;;22.70;;
8572;SDS011;4324;42.012;24.872;2024-01-11T06:32:33;32.30;;;21.70;;
8572;SDS011;4324;42.012;24.872;2024-01-11T06:35:00;43.50;;;28.20;;
8572;SDS011;4324;42.012;24.872;2024-01-11T06:37:28;45.23;;;29.97;;
8572;SDS011;4324;42.012;24.872;2024-01-11T06:39:55;37.87;;;26.33;;
8572;SDS011;4324;42.012;24.872;2024-01-11T06:42:24;32.50;;;21.17;;
8572;SDS011;4324;42.012;24.872;2024-01-11T06:44:54;48.97;;;34.27;;
8572;SDS011;4324;42.012;24.872;2024-01-11T06:47:21;39.53;;;26.83;;
8572;SDS011;4324;42.012;24.872;2024-01-11T06:49:51;34.20;;;24.00;;
8572;SDS011;4324;42.012;24.872;2024-01-11T06:52:23;26.37;;;18.90;;
8572;SDS011;4324;42.012;24.872;2024-01-11T06:54:53;34.73;;;25.37;;
8572;SDS011;4324;42.012;24.872;2024-01-11T06:57:20;25.90;;;18.67;;
8572;SDS011;4324;42.012;24.872;2024-01-11T06:59:49;19.90;;;14.97;;
8572;SDS011;4324;42.012;24.872;2024-01-11T07:02:16;23.80;;;16.50;;
8572;SDS011;4324;42.012;24.872;2024-01-11T07:04:43;16.90;;;12.87;;
8572;SDS011;4324;42.012;24.872;2024-01-11T07:07:11;21.60;;;15.17;;
8572;SDS011;4324;42.012;24.872;2024-01-11T07:09:38;31.90;;;21.17;;
8572;SDS011;4324;42.012;24.872;2024-01-11T07:12:05;29.87;;;20.57;;
8572;SDS011;4324;42.012;24.872;2024-01-11T07:14:32;24.87;;;17.77;;
8572;SDS011;4324;42.012;24.872;2024-01-11T07:17:01;27.90;;;20.23;;
8572;SDS011;4324;42.012;24.872;2024-01-11T07:19:29;31.53;;;23.93;;
8572;SDS011;4324;42.012;24.872;2024-01-11T07:21:56;24.73;;;17.73;;
8572;SDS011;4324;42.012;24.872;2024-01-11T07:24:23;21.80;;;15.23;;
8572;SDS011;4324;42.012;24.872;2024-01-11T07:26:50;26.83;;;17.23;;
8572;SDS011;4324;42.012;24.872;2024-01-11T07:29:19;24.13;;;18.33;;
8572;SDS011;4324;42.012;24.872;2024-01-11T07:31:46;20.27;;;14.70;;
8572;SDS011;4324;42.012;24.872;2024-01-11T07:34:15;19.23;;;14.00;;
8572;SDS011;4324;42.012;24.872;2024-01-11T07:36:42;18.47;;;13.53;;
8572;SDS011;4324;42.012;24.872;2024-01-11T07:39:09;21.33;;;14.80;;
8572;SDS011;4324;42.012;24.872;2024-01-11T07:41:37;20.33;;;14.40;;
8572;SDS011;4324;42.012;24.872;2024-01-11T07:44:04;16.50;;;12.40;;
8572;SDS011;4324;42.012;24.872;2024-01-11T07:46:31;16.20;;;12.60;;
8572;SDS011;4324;42.012;24.872;2024-01-11T07:48:58;17.20;;;12.63;;
8572;SDS011;4324;42.012;24.872;2024-01-11T07:51:26;16.43;;;11.67;;
8572;SDS011;4324;42.012;24.872;2024-01-11T07:53:53;18.13;;;11.87;;
8572;SDS011;4324;42.012;24.872;2024-01-11T07:56:20;16.80;;;12.57;;
8572;SDS011;4324;42.012;24.872;2024-01-11T07:58:47;19.60;;;11.80;;
8572;SDS011;4324;42.012;24.872;2024-01-11T08:01:15;17.50;;;12.30;;
8572;SDS011;4324;42.012;24.872;2024-01-11T08:03:42;16.63;;;11.43;;
8572;SDS011;4324;42.012;24.872;2024-01-11T08:06:10;16.10;;;11.87;;
8572;SDS011;4324;42.012;24.872;2024-01-11T08:08:38;18.07;;;13.07;;
8572;SDS011;4324;42.012;24.872;2024-01-11T08:11:06;19.97;;;14.90;;
8572;SDS011;4324;42.012;24.872;2024-01-11T08:13:34;17.10;;;13.23;;
8572;SDS011;4324;42.012;24.872;2024-01-11T08:16:03;19.00;;;12.77;;
8572;SDS011;4324;42.012;24.872;2024-01-11T08:18:34;18.63;;;11.67;;
8572;SDS011;4324;42.012;24.872;2024-01-11T08:21:02;19.93;;;12.13;;
8572;SDS011;4324;42.012;24.872;2024-01-11T08:23:31;18.53;;;12.57;;
8572;SDS011;4324;42.012;24.872;2024-01-11T08:26:04;18.97;;;12.77;;
8572;SDS011;4324;42.012;24.872;2024-01-11T08:28:34;20.53;;;12.23;;
8572;SDS011;4324;42.012;24.872;2024-01-11T08:31:01;18.90;;;13.10;;
8572;SDS011;4324;42.012;24.872;2024-01-11T08:33:30;19.97;;;12.37;;
8572;SDS011;4324;42.012;24.872;2024-01-11T08:35:57;22.03;;;12.33;;
8572;SDS011;4324;42.012;24.872;2024-01-11T08:38:24;19.70;;;13.37;;
8572;SDS011;4324;42.012;24.872;2024-01-11T08:40:51;16.40;;;12.60;;
8572;SDS011;4324;42.012;24.872;2024-01-11T08:43:19;20.13;;;14.27;;
8572;SDS011;4324;42.012;24.872;2024-01-11T08:45:46;17.37;;;12.63;;
8572;SDS011;4324;42.012;24.872;2024-01-11T08:48:13;17.67;;;12.23;;
8572;SDS011;4324;42.012;24.872;2024-01-11T08:50:40;20.97;;;11.97;;
8572;SDS011;4324;42.012;24.872;2024-01-11T08:53:07;16.13;;;12.50;;
8572;SDS011;4324;42.012;24.872;2024-01-11T08:55:34;18.77;;;11.40;;
8572;SDS011;4324;42.012;24.872;2024-01-11T08:58:02;20.43;;;12.23;;
8572;SDS011;4324;42.012;24.872;2024-01-11T09:00:31;16.37;;;12.10;;
8572;SDS011;4324;42.012;24.872;2024-01-11T09:02:58;14.40;;;10.47;;
8572;SDS011;4324;42.012;24.872;2024-01-11T09:05:26;16.00;;;11.70;;
8572;SDS011;4324;42.012;24.872;2024-01-11T09:07:53;15.40;;;10.97;;
8572;SDS011;4324;42.012;24.872;2024-01-11T09:10:20;16.47;;;11.73;;
8572;SDS011;4324;42.012;24.872;2024-01-11T09:12:47;17.73;;;12.63;;
8572;SDS011;4324;42.012;24.872;2024-01-11T09:15:15;17.83;;;12.50;;
8572;SDS011;4324;42.012;24.872;2024-01-11T09:17:43;19.77;;;13.17;;
8572;SDS011;4324;42.012;24.872;2024-01-11T09:20:10;19.67;;;12.73;;
8572;SDS011;4324;42.012;24.872;2024-01-11T09:22:39;18.87;;;13.10;;
8572;SDS011;4324;42.012;24.872;2024-01-11T09:25:07;18.63;;;13.33;;
8572;SDS011;4324;42.012;24.872;2024-01-11T09:27:34;17.63;;;12.80;;
8572;SDS011;4324;42.012;24.872;2024-01-11T09:30:01;21.20;;;14.13;;
8572;SDS011;4324;42.012;24.872;2024-01-11T09:32:29;20.67;;;14.00;;
8572;SDS011;4324;42.012;24.872;2024-01-11T09:34:58;18.13;;;13.83;;
8572;SDS011;4324;42.012;24.872;2024-01-11T09:37:25;17.13;;;13.23;;
8572;SDS011;4324;42.012;24.872;2024-01-11T09:39:52;18.37;;;13.20;;
8572;SDS011;4324;42.012;24.872;2024-01-11T09:42:19;23.80;;;13.70;;
8572;SDS011;4324;42.012;24.872;2024-01-11T09:44:46;19.40;;;13.97;;
8572;SDS011;4324;42.012;24.872;2024-01-11T09:47:13;21.73;;;14.43;;
8572;SDS011;4324;42.012;24.872;2024-01-11T09:49:43;18.27;;;14.03;;
8572;SDS011;4324;42.012;24.872;2024-01-11T09:52:12;18.80;;;14.07;;
8572;SDS011;4324;42.012;24.872;2024-01-11T09:54:43;22.00;;;15.83;;
8572;SDS011;4324;42.012;24.872;2024-01-11T09:57:10;21.47;;;16.97;;
8572;SDS011;4324;42.012;24.872;2024-01-11T09:59:37;25.93;;;17.13;;
8572;SDS011;4324;42.012;24.872;2024-01-11T10:02:05;24.07;;;16.30;;
8572;SDS011;4324;42.012;24.872;2024-01-11T10:04:36;23.33;;;17.23;;
8572;SDS011;4324;42.012;24.872;2024-01-11T10:07:03;20.03;;;14.27;;
8572;SDS011;4324;42.012;24.872;2024-01-11T10:09:33;24.40;;;14.87;;
8572;SDS011;4324;42.012;24.872;2024-01-11T10:12:00;22.00;;;15.13;;
8572;SDS011;4324;42.012;24.872;2024-01-11T10:14:28;17.87;;;13.60;;
8572;SDS011;4324;42.012;24.872;2024-01-11T10:16:57;22.43;;;15.10;;
8572;SDS011;4324;42.012;24.872;2024-01-11T10:19:24;21.67;;;15.27;;
8572;SDS011;4324;42.012;24.872;2024-01-11T10:21:52;19.67;;;14.50;;
8572;SDS011;4324;42.012;24.872;2024-01-11T10:24:19;22.77;;;16.60;;
8572;SDS011;4324;42.012;24.872;2024-01-11T10:26:49;20.47;;;14.53;;
8572;SDS011;4324;42.012;24.872;2024-01-11T10:29:17;18.83;;;13.63;;
8572;SDS011;4324;42.012;24.872;2024-01-11T10:31:44;21.07;;;13.07;;
8572;SDS011;4324;42.012;24.872;2024-01-11T10:34:11;19.63;;;14.33;;
8572;SDS011;4324;42.012;24.872;2024-01-11T10:36:38;20.40;;;14.57;;
8572;SDS011;4324;42.012;24.872;2024-01-11T10:39:06;21.03;;;15.37;;
8572;SDS011;4324;42.012;24.872;2024-01-11T10:41:36;17.60;;;13.80;;
8572;SDS011;4324;42.012;24.872;2024-01-11T10:44:09;27.13;;;16.90;;
8572;SDS011;4324;42.012;24.872;2024-01-11T10:46:44;17.80;;;14.07;;
8572;SDS011;4324;42.012;24.872;2024-01-11T10:49:13;20.23;;;13.87;;
8572;SDS011;4324;42.012;24.872;2024-01-11T10:51:43;26.57;;;17.40;;
8572;SDS011;4324;42.012;24.872;2024-01-11T10:54:16;30.30;;;22.43;;
8572;SDS011;4324;42.012;24.872;2024-01-11T10:56:45;23.33;;;17.50;;
8572;SDS011;4324;42.012;24.872;2024-01-11T10:59:14;24.27;;;16.90;;
8572;SDS011;4324;42.012;24.872;2024-01-11T11:01:44;29.27;;;19.03;;
8572;SDS011;4324;42.012;24.872;2024-01-11T11:04:12;26.07;;;18.83;;
8572;SDS011;4324;42.012;24.872;2024-01-11T11:06:42;32.70;;;22.90;;
8572;SDS011;4324;42.012;24.872;2024-01-11T11:09:10;32.93;;;22.67;;
8572;SDS011;4324;42.012;24.872;2024-01-11T11:11:40;28.37;;;19.00;;
8572;SDS011;4324;42.012;24.872;2024-01-11T11:14:07;30.27;;;18.60;;
8572;SDS011;4324;42.012;24.872;2024-01-11T11:16:38;23.30;;;16.43;;
8572;SDS011;4324;42.012;24.872;2024-01-11T11:19:06;16.90;;;12.27;;
8572;SDS011;4324;42.012;24.872;2024-01-11T11:21:40;12.07;;;9.67;;
8572;SDS011;4324;42.012;24.872;2024-01-11T11:24:08;15.53;;;10.30;;
8572;SDS011;4324;42.012;24.872;2024-01-11T11:26:36;18.20;;;12.60;;
8572;SDS011;4324;42.012;24.872;2024-01-11T11:29:03;17.20;;;10.47;;
8572;SDS011;4324;42.012;24.872;2024-01-11T11:31:42;13.47;;;8.67;;
8572;SDS011;4324;42.012;24.872;2024-01-11T11:34:11;14.77;;;8.27;;
8572;SDS011;4324;42.012;24.872;2024-01-11T11:36:39;14.67;;;9.80;;
8572;SDS011;4324;42.012;24.872;2024-01-11T11:39:09;12.77;;;8.87;;
8572;SDS011;4324;42.012;24.872;2024-01-11T11:41:37;14.43;;;8.93;;
8572;SDS011;4324;42.012;24.872;2024-01-11T11:44:05;11.07;;;7.30;;
8572;SDS011;4324;42.012;24.872;2024-01-11T11:46:33;14.53;;;8.90;;
8572;SDS011;4324;42.012;24.872;2024-01-11T11:49:01;9.80;;;6.93;;
8572;SDS011;4324;42.012;24.872;2024-01-11T11:51:28;9.40;;;6.93;;
8572;SDS011;4324;42.012;24.872;2024-01-11T11:53:55;9.20;;;7.63;;
8572;SDS011;4324;42.012;24.872;2024-01-11T11:56:23;11.57;;;7.73;;
8572;SDS011;4324;42.012;24.872;2024-01-11T11:58:51;12.27;;;9.07;;
8572;SDS011;4324;42.012;24.872;2024-01-11T12:01:20;13.57;;;8.27;;
8572;SDS011;4324;42.012;24.872;2024-01-11T12:03:47;17.50;;;10.83;;
8572;SDS011;4324;42.012;24.872;2024-01-11T12:06:17;14.93;;;10.13;;
8572;SDS011;4324;42.012;24.872;2024-01-11T12:08:45;12.60;;;10.73;;
8572;SDS011;4324;42.012;24.872;2024-01-11T12:11:13;17.57;;;12.77;;
8572;SDS011;4324;42.012;24.872;2024-01-11T12:13:44;21.20;;;13.43;;
8572;SDS011;4324;42.012;24.872;2024-01-11T12:16:12;16.60;;;12.33;;
8572;SDS011;4324;42.012;24.872;2024-01-11T12:18:39;16.87;;;13.13;;
8572;SDS011;4324;42.012;24.872;2024-01-11T12:21:06;18.73;;;13.20;;
8572;SDS011;4324;42.012;24.872;2024-01-11T12:23:36;15.37;;;12.30;;
8572;SDS011;4324;42.012;24.872;2024-01-11T12:26:06;16.07;;;12.27;;
8572;SDS011;4324;42.012;24.872;2024-01-11T12:28:38;15.80;;;12.03;;
8572;SDS011;4324;42.012;24.872;2024-01-11T12:31:05;14.73;;;12.23;;
8572;SDS011;4324;42.012;24.872;2024-01-11T12:33:33;14.43;;;12.00;;
8572;SDS011;4324;42.012;24.872;2024-01-11T12:36:04;16.67;;;12.50;;
8572;SDS011;4324;42.012;24.872;2024-01-11T12:38:33;17.47;;;13.00;;
8572;SDS011;4324;42.012;24.872;2024-01-11T12:41:02;16.53;;;12.80;;
8572;SDS011;4324;42.012;24.872;2024-01-11T12:43:29;17.73;;;12.23;;
8572;SDS011;4324;42.012;24.872;2024-01-11T12:45:56;17.90;;;12.80;;
8572;SDS011;4324;42.012;24.872;2024-01-11T12:48:23;16.33;;;11.97;;
8572;SDS011;4324;42.012;24.872;2024-01-11T12:50:50;16.70;;;12.57;;
8572;SDS011;4324;42.012;24.872;2024-01-11T12:53:19;18.93;;;12.00;;
8572;SDS011;4324;42.012;24.872;2024-01-11T12:55:46;19.77;;;12.60;;
8572;SDS011;4324;42.012;24.872;2024-01-11T12:58:18;16.13;;;11.70;;
8572;SDS011;4324;42.012;24.872;2024-01-11T13:00:46;14.87;;;11.03;;
8572;SDS011;4324;42.012;24.872;2024-01-11T13:03:14;17.57;;;11.47;;
8572;SDS011;4324;42.012;24.872;2024-01-11T13:05:41;12.33;;;8.83;;
8572;SDS011;4324;42.012;24.872;2024-01-11T13:08:08;14.00;;;9.07;;
8572;SDS011;4324;42.012;24.872;2024-01-11T13:10:35;12.50;;;8.00;;
8572;SDS011;4324;42.012;24.872;2024-01-11T13:13:03;10.83;;;7.57;;
8572;SDS011;4324;42.012;24.872;2024-01-11T13:15:32;12.13;;;8.17;;
8572;SDS011;4324;42.012;24.872;2024-01-11T13:18:00;13.43;;;9.13;;
8572;SDS011;4324;42.012;24.872;2024-01-11T13:20:27;12.10;;;8.20;;
8572;SDS011;4324;42.012;24.872;2024-01-11T13:25:40;14.97;;;9.53;;
8572;SDS011;4324;42.012;24.872;2024-01-11T13:28:07;20.07;;;12.33;;
8572;SDS011;4324;42.012;24.872;2024-01-11T13:30:37;23.40;;;13.27;;
8572;SDS011;4324;42.012;24.872;2024-01-11T13:33:05;21.70;;;13.87;;
8572;SDS011;4324;42.012;24.872;2024-01-11T13:35:33;20.53;;;15.60;;
8572;SDS011;4324;42.012;24.872;2024-01-11T13:38:00;27.53;;;14.80;;
8572;SDS011;4324;42.012;24.872;2024-01-11T13:40:27;17.17;;;12.97;;
8572;SDS011;4324;42.012;24.872;2024-01-11T13:42:55;21.23;;;11.67;;
8572;SDS011;4324;42.012;24.872;2024-01-11T13:45:22;23.50;;;14.73;;
8572;SDS011;4324;42.012;24.872;2024-01-11T13:47:50;21.67;;;14.57;;
8572;SDS011;4324;42.012;24.872;2024-01-11T13:50:19;20.23;;;14.87;;
8572;SDS011;4324;42.012;24.872;2024-01-11T13:52:46;19.53;;;14.50;;
8572;SDS011;4324;42.012;24.872;2024-01-11T13:55:13;28.90;;;15.43;;
8572;SDS011;4324;42.012;24.872;2024-01-11T13:57:41;19.73;;;14.60;;
8572;SDS011;4324;42.012;24.872;2024-01-11T14:00:09;20.87;;;16.23;;
8572;SDS011;4324;42.012;24.872;2024-01-11T14:02:38;26.60;;;18.13;;
8572;SDS011;4324;42.012;24.872;2024-01-11T14:05:07;27.80;;;19.33;;
8572;SDS011;4324;42.012;24.872;2024-01-11T14:07:37;22.10;;;18.27;;
8572;SDS011;4324;42.012;24.872;2024-01-11T14:10:04;19.43;;;15.17;;
8572;SDS011;4324;42.012;24.872;2024-01-11T14:12:33;24.23;;;15.23;;
8572;SDS011;4324;42.012;24.872;2024-01-11T14:15:01;18.37;;;14.47;;
8572;SDS011;4324;42.012;24.872;2024-01-11T14:17:29;20.83;;;16.00;;
8572;SDS011;4324;42.012;24.872;2024-01-11T14:19:56;17.63;;;15.70;;
8572;SDS011;4324;42.012;24.872;2024-01-11T14:22:24;28.10;;;20.37;;
8572;SDS011;4324;42.012;24.872;2024-01-11T14:24:51;23.90;;;20.00;;
8572;SDS011;4324;42.012;24.872;2024-01-11T14:27:19;25.97;;;19.30;;
8572;SDS011;4324;42.012;24.872;2024-01-11T14:29:46;26.77;;;19.07;;
8572;SDS011;4324;42.012;24.872;2024-01-11T14:32:14;30.53;;;22.40;;
8572;SDS011;4324;42.012;24.872;2024-01-11T14:34:42;32.13;;;23.60;;
8572;SDS011;4324;42.012;24.872;2024-01-11T14:37:10;35.90;;;26.00;;
8572;SDS011;4324;42.012;24.872;2024-01-11T14:39:38;45.13;;;30.03;;
8572;SDS011;4324;42.012;24.872;2024-01-11T14:42:05;50.50;;;31.50;;
8572;SDS011;4324;42.012;24.872;2024-01-11T14:44:34;51.13;;;31.10;;